createdAt,value
2022-12-22T00:00:56.092Z,1.23
2022-12-22T00:02:19.222Z,0.98
2022-12-22T00:03:39.527Z,0.80
2022-12-22T00:05:03.411Z,0.65
2022-12-22T00:06:28.451Z,0.51
2022-12-22T00:07:48.325Z,0.36
2022-12-22T00:09:08.122Z,0.29
2022-12-22T00:10:28.647Z,0.24
2022-12-22T00:11:49.056Z,0.19
2022-12-22T00:13:08.974Z,0.19
2022-12-22T00:14:30.465Z,0.17
2022-12-22T00:15:53.796Z,0.03
2022-12-22T00:17:15.663Z,-0.04
2022-12-22T00:18:35.857Z,-0.06
2022-12-22T00:19:55.786Z,-0.11
2022-12-22T00:21:15.791Z,-0.10
2022-12-22T00:22:41.036Z,0.05
2022-12-22T00:24:01.383Z,0.20
2022-12-22T00:25:21.755Z,0.35
2022-12-22T00:26:42.759Z,0.51
2022-12-22T00:28:03.147Z,0.62
2022-12-22T00:29:23.428Z,0.76
2022-12-22T00:30:43.729Z,0.88
2022-12-22T00:32:04.932Z,0.99
2022-12-22T00:33:25.464Z,1.10
2022-12-22T00:34:46.744Z,1.22
2022-12-22T00:36:07.128Z,1.31
2022-12-22T00:37:33.597Z,1.29
2022-12-22T00:38:54.017Z,1.23
2022-12-22T00:40:13.897Z,1.09
2022-12-22T00:41:33.872Z,0.99
2022-12-22T00:42:54.489Z,0.89
2022-12-22T00:44:14.537Z,0.81
2022-12-22T00:45:34.451Z,0.83
2022-12-22T00:46:58.413Z,0.83
2022-12-22T00:48:19.361Z,0.80
2022-12-22T00:49:42.908Z,0.82
2022-12-22T00:51:03.156Z,0.73
2022-12-22T00:52:23.510Z,0.71
2022-12-22T00:53:43.966Z,0.49
2022-12-22T00:55:04.068Z,0.24
2022-12-22T00:56:25.450Z,0.02
2022-12-22T00:57:46.353Z,0.02
2022-12-22T00:59:08.038Z,-0.04
2022-12-22T01:00:34.675Z,-0.03
2022-12-22T01:01:55.103Z,-0.08
2022-12-22T01:03:15.400Z,-0.15
2022-12-22T01:04:35.554Z,-0.30
2022-12-22T01:05:55.999Z,-0.37
2022-12-22T01:07:16.643Z,-0.40
2022-12-22T01:08:37.188Z,-0.44
2022-12-22T01:09:57.557Z,-0.46
2022-12-22T01:11:17.824Z,-0.45
2022-12-22T01:12:42.639Z,-0.38
2022-12-22T01:14:03.060Z,-0.35
2022-12-22T01:15:30.118Z,-0.34
2022-12-22T01:16:50.360Z,-0.34
2022-12-22T01:18:10.291Z,-0.32
2022-12-22T01:19:30.313Z,-0.23
2022-12-22T01:20:53.361Z,-0.12
2022-12-22T01:22:14.640Z,-0.01
2022-12-22T01:23:34.968Z,0.06
2022-12-22T01:24:54.668Z,0.15
2022-12-22T01:26:14.488Z,0.24
2022-12-22T01:27:35.520Z,0.33
2022-12-22T01:28:55.697Z,0.38
2022-12-22T01:30:15.716Z,0.29
2022-12-22T01:31:51.382Z,0.32
2022-12-22T01:33:11.280Z,0.40
2022-12-22T01:34:31.021Z,0.46
2022-12-22T01:35:53.391Z,0.52
2022-12-22T01:37:13.322Z,0.54
2022-12-22T01:38:33.848Z,0.62
2022-12-22T01:39:53.785Z,0.71
2022-12-22T01:41:16.914Z,0.81
2022-12-22T01:42:37.338Z,0.89
2022-12-22T01:43:57.815Z,0.94
2022-12-22T01:45:32.381Z,1.01
2022-12-22T01:47:01.511Z,1.09
2022-12-22T01:48:21.552Z,1.11
2022-12-22T01:49:49.050Z,1.14
2022-12-22T01:51:08.913Z,1.17
2022-12-22T01:52:32.251Z,1.20
2022-12-22T01:53:53.432Z,1.22
2022-12-22T01:55:16.576Z,1.25
2022-12-22T01:56:36.679Z,1.26
2022-12-22T01:57:56.766Z,1.31
2022-12-22T01:59:19.772Z,1.32
2022-12-22T02:00:40.267Z,1.35
2022-12-22T02:02:01.732Z,1.39
2022-12-22T02:03:22.128Z,1.42
2022-12-22T02:04:46.354Z,1.42
2022-12-22T02:06:33.271Z,1.47
2022-12-22T02:08:06.493Z,1.51
2022-12-22T02:09:41.528Z,1.51
2022-12-22T02:11:17.495Z,1.52
2022-12-22T02:12:42.956Z,1.54
2022-12-22T02:14:08.865Z,1.53
2022-12-22T02:15:44.336Z,1.53
2022-12-22T02:17:30.761Z,1.54
2022-12-22T02:19:14.043Z,1.55
2022-12-22T02:20:47.160Z,1.51
2022-12-22T02:22:22.969Z,1.49
2022-12-22T02:23:54.058Z,1.51
2022-12-22T02:25:25.058Z,1.53
2022-12-22T02:26:47.234Z,1.54
2022-12-22T02:28:10.563Z,1.56
2022-12-22T02:29:33.652Z,1.60
2022-12-22T02:30:55.111Z,1.63
2022-12-22T02:32:16.181Z,1.66
2022-12-22T02:33:38.544Z,1.66
2022-12-22T02:34:58.437Z,1.68
2022-12-22T02:36:31.842Z,1.67
2022-12-22T02:37:54.754Z,1.68
2022-12-22T02:39:21.003Z,1.66
2022-12-22T02:41:06.133Z,1.65
2022-12-22T02:42:35.029Z,1.65
2022-12-22T02:44:12.225Z,1.65
2022-12-22T02:45:32.347Z,1.65
2022-12-22T02:46:57.808Z,1.61
2022-12-22T02:48:27.091Z,1.43
2022-12-22T02:49:57.854Z,1.05
2022-12-22T02:51:24.745Z,0.70
2022-12-22T02:52:52.776Z,0.61
2022-12-22T02:54:13.996Z,0.50
2022-12-22T02:55:35.655Z,0.25
2022-12-22T02:56:56.924Z,0.11
2022-12-22T02:58:20.183Z,0.14
2022-12-22T02:59:39.954Z,0.14
2022-12-22T03:00:59.750Z,0.12
2022-12-22T03:02:19.932Z,0.03
2022-12-22T03:03:40.444Z,0.03
2022-12-22T03:05:00.467Z,0.04
2022-12-22T03:06:20.275Z,0.00
2022-12-22T03:07:40.160Z,0.09
2022-12-22T03:09:00.229Z,0.12
2022-12-22T03:10:20.090Z,0.08
2022-12-22T03:11:39.910Z,0.13
2022-12-22T03:13:00.240Z,0.13
2022-12-22T03:14:20.168Z,0.17
2022-12-22T03:15:40.184Z,0.14
2022-12-22T03:17:00.176Z,0.17
2022-12-22T03:18:25.342Z,0.23
2022-12-22T03:19:45.260Z,0.31
2022-12-22T03:21:05.659Z,0.29
2022-12-22T03:22:25.884Z,0.21
2022-12-22T03:23:45.648Z,0.09
2022-12-22T03:25:06.048Z,-0.04
2022-12-22T03:26:07.600Z,0.04
2022-12-22T03:27:09.192Z,0.11
2022-12-22T03:28:11.485Z,0.20
2022-12-22T03:29:13.023Z,0.23
2022-12-22T03:30:14.722Z,0.18
2022-12-22T03:31:16.470Z,0.21
2022-12-22T03:32:18.069Z,0.26
2022-12-22T03:33:19.632Z,0.32
2022-12-22T03:34:21.212Z,0.39
2022-12-22T03:35:22.798Z,0.46
2022-12-22T03:36:24.430Z,0.52
2022-12-22T03:37:25.953Z,0.59
2022-12-22T03:38:28.197Z,0.68
2022-12-22T03:39:29.714Z,0.73
2022-12-22T03:40:32.343Z,0.77
2022-12-22T03:41:52.409Z,0.81
2022-12-22T03:43:12.521Z,0.84
2022-12-22T03:44:32.726Z,0.87
2022-12-22T03:45:53.124Z,0.90
2022-12-22T03:46:54.831Z,0.93
2022-12-22T03:47:56.413Z,0.93
2022-12-22T03:49:11.074Z,0.95
2022-12-22T03:50:12.771Z,0.96
2022-12-22T03:51:14.315Z,0.98
2022-12-22T03:52:15.896Z,0.98
2022-12-22T03:53:17.659Z,0.98
2022-12-22T03:54:22.200Z,0.93
2022-12-22T03:55:23.773Z,0.93
2022-12-22T03:56:25.438Z,0.97
2022-12-22T03:57:26.967Z,0.99
2022-12-22T03:58:29.113Z,1.02
2022-12-22T03:59:30.619Z,1.04
2022-12-22T04:00:32.241Z,1.06
2022-12-22T04:01:38.362Z,1.08
2022-12-22T04:02:40.125Z,1.11
2022-12-22T04:03:41.738Z,1.13
2022-12-22T04:04:43.264Z,1.14
2022-12-22T04:05:45.745Z,1.15
2022-12-22T04:06:47.797Z,1.14
2022-12-22T04:07:49.324Z,1.15
2022-12-22T04:08:51.244Z,1.15
2022-12-22T04:10:11.340Z,1.15
2022-12-22T04:11:33.400Z,1.16
2022-12-22T04:12:53.485Z,1.15
2022-12-22T04:13:54.985Z,1.14
2022-12-22T04:14:56.538Z,1.15
2022-12-22T04:15:58.076Z,1.12
2022-12-22T04:16:59.703Z,1.00
2022-12-22T04:18:01.312Z,0.75
2022-12-22T04:19:03.088Z,0.55
2022-12-22T04:20:05.249Z,0.46
2022-12-22T04:21:06.781Z,0.24
2022-12-22T04:22:08.317Z,-0.15
2022-12-22T04:23:10.558Z,-0.36
2022-12-22T04:24:13.237Z,-0.43
2022-12-22T04:25:15.369Z,-0.51
2022-12-22T04:26:18.999Z,-0.63
2022-12-22T04:27:21.048Z,-0.79
2022-12-22T04:28:22.670Z,-0.88
2022-12-22T04:29:24.348Z,-0.96
2022-12-22T04:30:25.926Z,-0.93
2022-12-22T04:31:27.699Z,-0.88
2022-12-22T04:32:29.200Z,-0.96
2022-12-22T04:33:30.761Z,-1.06
2022-12-22T04:34:32.282Z,-1.19
2022-12-22T04:35:33.830Z,-1.28
2022-12-22T04:36:35.539Z,-1.18
2022-12-22T04:37:37.424Z,-1.14
2022-12-22T04:38:39.056Z,-1.17
2022-12-22T04:39:40.590Z,-1.19
2022-12-22T04:40:42.154Z,-1.21
2022-12-22T04:41:44.702Z,-1.29
2022-12-22T04:42:46.257Z,-1.30
2022-12-22T04:43:47.803Z,-1.34
2022-12-22T04:44:49.868Z,-1.25
2022-12-22T04:45:56.207Z,-1.10
2022-12-22T04:46:57.813Z,-1.01
2022-12-22T04:47:59.568Z,-0.90
2022-12-22T04:49:01.457Z,-0.82
2022-12-22T04:50:03.245Z,-0.71
2022-12-22T04:51:05.142Z,-0.62
2022-12-22T04:52:07.193Z,-0.53
2022-12-22T04:53:09.115Z,-0.46
2022-12-22T04:54:11.420Z,-0.49
2022-12-22T04:55:12.961Z,-0.51
2022-12-22T04:56:14.484Z,-0.57
2022-12-22T04:57:16.610Z,-0.50
2022-12-22T04:58:18.176Z,-0.49
2022-12-22T04:59:19.777Z,-0.51
2022-12-22T05:00:21.355Z,-0.54
2022-12-22T05:01:23.055Z,-0.50
2022-12-22T05:02:24.691Z,-0.47
2022-12-22T05:03:26.333Z,-0.45
2022-12-22T05:04:28.030Z,-0.41
2022-12-22T05:05:29.521Z,-0.47
2022-12-22T05:06:31.170Z,-0.62
2022-12-22T05:07:32.733Z,-0.63
2022-12-22T05:08:34.562Z,-0.56
2022-12-22T05:09:36.071Z,-0.47
2022-12-22T05:10:37.875Z,-0.48
2022-12-22T05:11:39.517Z,-0.44
2022-12-22T05:12:56.276Z,-0.41
2022-12-22T05:14:02.075Z,-0.52
2022-12-22T05:15:07.722Z,-0.64
2022-12-22T05:16:15.342Z,-0.57
2022-12-22T05:17:17.017Z,-0.48
2022-12-22T05:18:18.576Z,-0.40
2022-12-22T05:19:20.172Z,-0.26
2022-12-22T05:20:22.129Z,-0.14
2022-12-22T05:21:23.831Z,-0.03
2022-12-22T05:22:25.403Z,0.03
2022-12-22T05:23:26.964Z,0.11
2022-12-22T05:24:28.472Z,0.18
2022-12-22T05:25:35.038Z,0.26
2022-12-22T05:26:37.207Z,0.33
2022-12-22T05:27:38.948Z,0.38
2022-12-22T05:28:45.170Z,0.45
2022-12-22T05:29:46.693Z,0.51
2022-12-22T05:30:48.273Z,0.55
2022-12-22T05:31:49.837Z,0.57
2022-12-22T05:32:51.400Z,0.60
2022-12-22T05:33:53.147Z,0.62
2022-12-22T05:34:54.706Z,0.67
2022-12-22T05:35:56.264Z,0.69
2022-12-22T05:36:57.839Z,0.66
2022-12-22T05:37:59.404Z,0.48
2022-12-22T05:39:00.980Z,0.26
2022-12-22T05:40:03.078Z,0.17
2022-12-22T05:41:05.049Z,-0.04
2022-12-22T05:42:06.560Z,-0.22
2022-12-22T05:43:08.127Z,-0.48
2022-12-22T05:44:09.636Z,-0.55
2022-12-22T05:45:20.320Z,-0.54
2022-12-22T05:46:23.636Z,-0.56
2022-12-22T05:47:25.221Z,-0.63
2022-12-22T05:48:32.154Z,-0.72
2022-12-22T05:49:36.984Z,-0.83
2022-12-22T05:50:39.034Z,-0.92
2022-12-22T05:51:40.572Z,-1.00
2022-12-22T05:52:42.794Z,-0.99
2022-12-22T05:53:44.298Z,-1.04
2022-12-22T05:54:45.891Z,-1.09
2022-12-22T05:55:47.807Z,-1.09
2022-12-22T05:56:49.379Z,-1.06
2022-12-22T05:57:50.947Z,-1.00
2022-12-22T05:58:52.592Z,-0.93
2022-12-22T05:59:54.235Z,-0.96
2022-12-22T06:00:58.283Z,-1.00
2022-12-22T06:01:59.916Z,-1.00
2022-12-22T06:03:01.639Z,-0.94
2022-12-22T06:04:03.617Z,-0.97
2022-12-22T06:05:06.302Z,-1.04
2022-12-22T06:06:07.976Z,-1.11
2022-12-22T06:07:09.774Z,-1.11
2022-12-22T06:08:11.324Z,-1.18
2022-12-22T06:09:12.865Z,-1.20
2022-12-22T06:10:15.488Z,-1.20
2022-12-22T06:11:19.331Z,-1.17
2022-12-22T06:12:20.910Z,-1.22
2022-12-22T06:13:23.202Z,-1.26
2022-12-22T06:14:24.790Z,-1.26
2022-12-22T06:15:26.377Z,-1.19
2022-12-22T06:16:27.925Z,-1.17
2022-12-22T06:17:29.552Z,-1.15
2022-12-22T06:18:31.096Z,-1.12
2022-12-22T06:19:32.648Z,-1.06
2022-12-22T06:20:34.241Z,-1.01
2022-12-22T06:21:35.790Z,-1.07
2022-12-22T06:22:37.397Z,-1.06
2022-12-22T06:23:38.954Z,-0.97
2022-12-22T06:24:40.507Z,-0.86
2022-12-22T06:25:42.217Z,-0.75
2022-12-22T06:26:43.897Z,-0.71
2022-12-22T06:27:46.836Z,-0.64
2022-12-22T06:28:48.434Z,-0.59
2022-12-22T06:29:50.042Z,-0.60
2022-12-22T06:30:51.709Z,-0.66
2022-12-22T06:31:53.395Z,-0.77
2022-12-22T06:32:54.999Z,-0.93
2022-12-22T06:33:56.525Z,-1.15
2022-12-22T06:34:58.034Z,-1.21
2022-12-22T06:36:04.628Z,-1.09
2022-12-22T06:37:06.205Z,-1.04
2022-12-22T06:38:07.778Z,-1.08
2022-12-22T06:39:09.373Z,-1.06
2022-12-22T06:40:11.371Z,-0.93
2022-12-22T06:41:12.899Z,-0.79
2022-12-22T06:42:33.027Z,-0.68
2022-12-22T06:43:34.579Z,-0.56
2022-12-22T06:44:36.135Z,-0.49
2022-12-22T06:45:42.637Z,-0.41
2022-12-22T06:46:44.362Z,-0.29
2022-12-22T06:47:46.054Z,-0.17
2022-12-22T06:48:48.016Z,0.04
2022-12-22T06:49:49.749Z,0.14
2022-12-22T06:50:51.446Z,0.20
2022-12-22T06:51:53.135Z,0.21
2022-12-22T06:52:54.783Z,0.29
2022-12-22T06:53:56.305Z,0.41
2022-12-22T06:54:57.839Z,0.51
2022-12-22T06:55:59.386Z,0.58
2022-12-22T06:57:01.004Z,0.66
2022-12-22T06:58:02.960Z,0.74
2022-12-22T06:59:04.828Z,0.81
2022-12-22T07:00:06.941Z,0.91
2022-12-22T07:01:08.495Z,1.03
2022-12-22T07:02:11.648Z,1.15
2022-12-22T07:03:13.500Z,1.26
2022-12-22T07:04:19.882Z,1.34
2022-12-22T07:05:23.869Z,1.34
2022-12-22T07:06:25.663Z,1.34
2022-12-22T07:07:27.221Z,1.40
2022-12-22T07:08:29.341Z,1.50
2022-12-22T07:09:30.972Z,1.58
2022-12-22T07:10:50.862Z,1.65
2022-12-22T07:11:52.462Z,1.77
2022-12-22T07:12:54.204Z,1.81
2022-12-22T07:13:55.782Z,1.92
2022-12-22T07:14:57.381Z,2.04
2022-12-22T07:16:01.126Z,2.14
2022-12-22T07:17:03.638Z,2.19
2022-12-22T07:18:05.328Z,2.16
2022-12-22T07:19:06.986Z,2.17
2022-12-22T07:20:09.053Z,2.19
2022-12-22T07:21:13.177Z,2.27
2022-12-22T07:22:14.752Z,2.39
2022-12-22T07:23:16.360Z,2.43
2022-12-22T07:24:23.198Z,2.52
2022-12-22T07:25:24.734Z,2.64
2022-12-22T07:26:26.345Z,2.74
2022-12-22T07:27:27.885Z,2.83
2022-12-22T07:28:31.954Z,2.93
2022-12-22T07:29:33.560Z,3.03
2022-12-22T07:30:36.797Z,3.11
2022-12-22T07:31:38.365Z,3.22
2022-12-22T07:32:39.940Z,3.28
2022-12-22T07:33:41.618Z,3.33
2022-12-22T07:34:43.195Z,3.34
2022-12-22T07:35:44.969Z,3.25
2022-12-22T07:36:46.531Z,2.92
2022-12-22T07:37:49.028Z,2.63
2022-12-22T07:38:51.938Z,2.02
2022-12-22T07:39:53.477Z,1.36
2022-12-22T07:41:04.502Z,1.02
2022-12-22T07:42:26.859Z,0.90
2022-12-22T07:43:28.353Z,0.88
2022-12-22T07:44:29.887Z,0.77
2022-12-22T07:45:31.468Z,0.94
2022-12-22T07:46:36.177Z,1.13
2022-12-22T07:47:37.976Z,1.16
2022-12-22T07:48:57.949Z,1.10
2022-12-22T07:50:17.823Z,1.27
2022-12-22T07:51:19.325Z,1.34
2022-12-22T07:52:20.873Z,1.45
2022-12-22T07:53:22.487Z,1.60
2022-12-22T07:54:24.584Z,1.64
2022-12-22T07:55:27.905Z,1.84
2022-12-22T07:56:30.122Z,2.09
2022-12-22T07:57:31.748Z,2.26
2022-12-22T07:58:33.588Z,2.38
2022-12-22T07:59:35.258Z,2.43
2022-12-22T08:00:36.788Z,2.58
2022-12-22T08:01:40.041Z,2.75
2022-12-22T08:02:41.797Z,2.96
2022-12-22T08:03:43.374Z,3.15
2022-12-22T08:04:45.163Z,3.32
2022-12-22T08:05:46.757Z,3.48
2022-12-22T08:06:48.331Z,3.56
2022-12-22T08:07:51.872Z,3.72
2022-12-22T08:08:53.435Z,3.90
2022-12-22T08:09:55.549Z,4.06
2022-12-22T08:10:57.107Z,4.01
2022-12-22T08:12:07.624Z,4.10
2022-12-22T08:13:09.213Z,4.21
2022-12-22T08:14:10.785Z,4.33
2022-12-22T08:15:12.404Z,4.44
2022-12-22T08:16:14.390Z,4.54
2022-12-22T08:17:16.207Z,4.55
2022-12-22T08:18:17.795Z,4.64
2022-12-22T08:19:19.402Z,4.67
2022-12-22T08:20:20.954Z,4.56
2022-12-22T08:21:23.138Z,4.63
2022-12-22T08:22:25.198Z,4.68
2022-12-22T08:23:26.803Z,4.68
2022-12-22T08:24:28.963Z,4.68
2022-12-22T08:25:32.446Z,4.81
2022-12-22T08:26:38.238Z,4.87
2022-12-22T08:27:47.443Z,4.90
2022-12-22T08:28:58.599Z,4.91
2022-12-22T08:30:02.302Z,4.83
2022-12-22T08:31:04.344Z,4.82
2022-12-22T08:32:06.008Z,4.75
2022-12-22T08:33:07.650Z,4.73
2022-12-22T08:34:12.830Z,4.70
2022-12-22T08:35:14.372Z,4.65
2022-12-22T08:36:16.368Z,4.73
2022-12-22T08:37:22.647Z,4.80
2022-12-22T08:38:24.231Z,4.94
2022-12-22T08:39:27.897Z,5.05
2022-12-22T08:40:32.410Z,5.12
2022-12-22T08:41:51.221Z,5.18
2022-12-22T08:42:59.248Z,5.25
2022-12-22T08:44:01.266Z,5.25
2022-12-22T08:45:03.296Z,5.26
2022-12-22T08:46:04.953Z,5.34
2022-12-22T08:47:10.246Z,5.42
2022-12-22T08:48:16.626Z,5.52
2022-12-22T08:49:18.797Z,5.54
2022-12-22T08:50:20.439Z,5.41
2022-12-22T08:51:22.050Z,5.32
2022-12-22T08:52:23.580Z,5.37
2022-12-22T08:54:02.523Z,5.44
2022-12-22T08:54:46.964Z,5.52
2022-12-22T08:55:55.790Z,5.63
2022-12-22T08:56:58.706Z,5.66
2022-12-22T08:58:00.448Z,5.43
2022-12-22T08:59:07.679Z,5.28
2022-12-22T09:00:11.195Z,4.92
2022-12-22T09:01:21.615Z,4.83
2022-12-22T09:02:23.249Z,5.01
2022-12-22T09:03:25.004Z,5.18
2022-12-22T09:04:26.662Z,5.31
2022-12-22T09:05:28.176Z,5.42
2022-12-22T09:06:36.290Z,5.56
2022-12-22T09:07:41.940Z,5.64
2022-12-22T09:08:43.512Z,5.72
2022-12-22T09:09:45.452Z,5.89
2022-12-22T09:10:47.099Z,5.93
2022-12-22T09:11:48.755Z,5.97
2022-12-22T09:12:51.424Z,5.95
2022-12-22T09:13:55.404Z,5.88
2022-12-22T09:14:57.040Z,5.69
2022-12-22T09:15:58.662Z,5.51
2022-12-22T09:17:00.595Z,5.67
2022-12-22T09:18:02.248Z,5.88
2022-12-22T09:19:04.693Z,5.99
2022-12-22T09:20:07.021Z,6.06
2022-12-22T09:21:08.608Z,5.94
2022-12-22T09:22:11.380Z,6.00
2022-12-22T09:23:12.947Z,5.82
2022-12-22T09:24:14.685Z,5.68
2022-12-22T09:25:18.232Z,5.39
2022-12-22T09:26:21.859Z,5.33
2022-12-22T09:27:23.418Z,5.25
2022-12-22T09:28:24.979Z,5.33
2022-12-22T09:29:26.541Z,5.50
2022-12-22T09:30:28.108Z,5.55
2022-12-22T09:31:29.921Z,5.53
2022-12-22T09:32:31.535Z,5.44
2022-12-22T09:33:34.248Z,5.31
2022-12-22T09:34:35.766Z,5.12
2022-12-22T09:35:41.487Z,4.89
2022-12-22T09:36:43.109Z,4.86
2022-12-22T09:37:44.680Z,5.05
2022-12-22T09:38:46.261Z,5.21
2022-12-22T09:39:48.672Z,5.18
2022-12-22T09:40:50.242Z,5.02
2022-12-22T09:41:54.813Z,4.97
2022-12-22T09:42:58.345Z,4.77
2022-12-22T09:44:13.451Z,4.65
2022-12-22T09:45:20.162Z,4.69
2022-12-22T09:46:25.568Z,4.51
2022-12-22T09:47:37.887Z,4.68
2022-12-22T09:48:39.540Z,4.86
2022-12-22T09:49:41.137Z,4.83
2022-12-22T09:50:42.778Z,4.83
2022-12-22T09:51:48.203Z,4.99
2022-12-22T09:52:54.569Z,5.11
2022-12-22T09:54:01.198Z,5.25
2022-12-22T09:55:13.020Z,5.36
2022-12-22T09:56:16.942Z,5.37
2022-12-22T09:57:18.504Z,4.92
2022-12-22T09:58:32.574Z,4.66
2022-12-22T09:59:34.130Z,4.58
2022-12-22T10:00:36.927Z,4.63
2022-12-22T10:01:53.705Z,4.88
2022-12-22T10:03:21.290Z,5.22
2022-12-22T10:04:54.938Z,5.45
2022-12-22T10:06:23.574Z,5.45
2022-12-22T10:07:38.424Z,5.42
2022-12-22T10:08:41.118Z,5.53
2022-12-22T10:09:51.505Z,5.64
2022-12-22T10:10:54.844Z,5.74
2022-12-22T10:12:03.669Z,5.65
2022-12-22T10:13:06.659Z,5.34
2022-12-22T10:14:10.864Z,5.23
2022-12-22T10:15:18.285Z,5.07
2022-12-22T10:16:28.214Z,4.99
2022-12-22T10:17:33.277Z,4.93
2022-12-22T10:18:35.514Z,5.00
2022-12-22T10:19:37.070Z,5.08
2022-12-22T10:20:39.894Z,5.07
2022-12-22T10:21:46.612Z,4.91
2022-12-22T10:22:53.194Z,5.04
2022-12-22T10:23:54.808Z,5.18
2022-12-22T10:24:57.215Z,5.39
2022-12-22T10:27:28.675Z,5.88
2022-12-22T10:28:38.705Z,6.09
2022-12-22T10:29:40.278Z,6.16
2022-12-22T10:30:42.133Z,6.22
2022-12-22T10:32:05.171Z,5.85
2022-12-22T10:33:11.684Z,5.90
2022-12-22T10:34:15.903Z,6.06
2022-12-22T10:35:17.558Z,5.97
2022-12-22T10:36:24.273Z,5.92
2022-12-22T10:37:40.135Z,5.96
2022-12-22T10:39:02.031Z,6.19
2022-12-22T10:40:33.581Z,6.46
2022-12-22T10:41:48.592Z,6.53
2022-12-22T10:42:55.925Z,6.48
2022-12-22T10:43:59.718Z,6.63
2022-12-22T10:45:01.400Z,6.73
2022-12-22T10:46:04.460Z,6.53
2022-12-22T10:47:18.003Z,6.29
2022-12-22T10:48:28.416Z,6.14
2022-12-22T10:50:48.484Z,6.31
2022-12-22T10:52:10.397Z,6.41
2022-12-22T10:53:12.049Z,6.45
2022-12-22T10:54:36.014Z,6.52
2022-12-22T10:55:39.348Z,6.48
2022-12-22T10:56:40.965Z,6.57
2022-12-22T10:57:42.539Z,6.58
2022-12-22T10:58:52.235Z,6.53
2022-12-22T10:59:57.391Z,6.57
2022-12-22T11:01:05.717Z,6.62
2022-12-22T11:02:49.003Z,6.71
2022-12-22T11:03:50.800Z,6.63
2022-12-22T11:04:53.491Z,6.67
2022-12-22T11:05:55.012Z,6.72
2022-12-22T11:06:58.690Z,6.80
2022-12-22T11:08:14.986Z,6.85
2022-12-22T11:09:33.141Z,6.81
2022-12-22T11:10:42.665Z,6.91
2022-12-22T11:11:44.172Z,6.94
2022-12-22T11:13:05.348Z,6.95
2022-12-22T11:14:16.573Z,7.01
2022-12-22T11:15:34.399Z,7.07
2022-12-22T11:17:00.494Z,7.13
2022-12-22T11:18:12.184Z,7.15
2022-12-22T11:19:47.796Z,7.15
2022-12-22T11:21:01.030Z,7.15
2022-12-22T11:22:28.556Z,7.18
2022-12-22T11:23:46.498Z,7.21
2022-12-22T11:25:03.194Z,7.28
2022-12-22T11:26:31.373Z,7.26
2022-12-22T11:27:51.448Z,7.24
2022-12-22T11:29:12.766Z,7.16
2022-12-22T11:30:20.072Z,7.19
2022-12-22T11:31:27.502Z,7.18
2022-12-22T11:32:53.640Z,7.06
2022-12-22T11:34:27.176Z,7.07
2022-12-22T11:36:09.846Z,6.98
2022-12-22T11:37:48.494Z,6.97
2022-12-22T11:39:04.359Z,6.86
2022-12-22T11:40:13.463Z,6.95
2022-12-22T11:41:52.537Z,6.98
2022-12-22T11:43:22.554Z,7.04
2022-12-22T11:44:42.749Z,7.00
2022-12-22T11:46:10.658Z,6.96
2022-12-22T11:47:29.575Z,6.74
2022-12-22T11:48:55.911Z,6.45
2022-12-22T11:50:58.121Z,6.37
2022-12-22T11:52:02.249Z,6.33
2022-12-22T11:53:45.394Z,6.38
2022-12-22T11:55:11.772Z,6.40
2022-12-22T11:56:22.648Z,6.57
2022-12-22T11:58:01.631Z,7.28
2022-12-22T11:59:35.572Z,7.13
2022-12-22T12:01:16.248Z,6.90
2022-12-22T12:02:37.754Z,6.87
2022-12-22T12:03:48.954Z,6.70
2022-12-22T12:05:09.322Z,6.66
2022-12-22T12:06:34.690Z,6.70
2022-12-22T12:07:50.988Z,6.73
2022-12-22T12:09:18.009Z,6.77
2022-12-22T12:10:27.810Z,6.69
2022-12-22T12:11:54.149Z,6.73
2022-12-22T12:13:04.600Z,6.80
2022-12-22T12:14:19.754Z,6.78
2022-12-22T12:15:41.558Z,6.75
2022-12-22T12:16:54.138Z,6.68
2022-12-22T12:18:13.588Z,6.73
2022-12-22T12:19:44.120Z,6.81
2022-12-22T12:20:55.463Z,6.91
2022-12-22T12:22:12.145Z,6.94
2022-12-22T12:23:44.701Z,6.87
2022-12-22T12:25:25.828Z,6.75
2022-12-22T12:26:31.146Z,6.71
2022-12-22T12:28:03.350Z,6.65
2022-12-22T12:29:13.623Z,6.69
2022-12-22T12:32:05.482Z,6.78
2022-12-22T12:33:42.836Z,6.67
2022-12-22T12:34:48.568Z,6.72
2022-12-22T12:36:28.008Z,6.74
2022-12-22T12:37:34.399Z,6.80
2022-12-22T12:39:07.585Z,6.74
2022-12-22T12:40:19.226Z,6.66
2022-12-22T12:41:33.329Z,6.63
2022-12-22T12:42:42.414Z,6.70
2022-12-22T12:43:45.132Z,6.73
2022-12-22T12:44:47.661Z,6.68
2022-12-22T12:45:50.229Z,6.71
2022-12-22T12:46:52.386Z,6.77
2022-12-22T12:47:54.527Z,6.75
2022-12-22T12:48:56.391Z,6.76
2022-12-22T12:50:02.177Z,6.81
2022-12-22T12:51:42.353Z,6.81
2022-12-22T12:52:48.565Z,6.82
2022-12-22T12:54:42.709Z,6.85
2022-12-22T12:55:50.321Z,6.93
2022-12-22T12:56:59.589Z,6.98
2022-12-22T12:58:04.241Z,6.94
2022-12-22T12:59:07.623Z,6.90
2022-12-22T13:00:32.485Z,6.91
2022-12-22T13:01:40.483Z,6.93
2022-12-22T13:02:57.211Z,7.02
2022-12-22T13:04:04.324Z,7.09
2022-12-22T13:05:12.479Z,7.02
2022-12-22T13:06:50.992Z,7.11
2022-12-22T13:08:08.204Z,7.12
2022-12-22T13:10:54.507Z,7.10
2022-12-22T13:12:13.708Z,7.15
2022-12-22T13:13:22.874Z,7.26
2022-12-22T13:15:01.433Z,7.37
2022-12-22T13:16:03.059Z,7.41
2022-12-22T13:18:02.290Z,7.36
2022-12-22T13:19:12.457Z,7.43
2022-12-22T13:20:17.671Z,7.47
2022-12-22T13:22:52.864Z,7.45
2022-12-22T13:24:24.090Z,7.45
2022-12-22T13:25:40.480Z,7.55
2022-12-22T13:26:44.480Z,7.60
2022-12-22T13:27:46.198Z,7.63
2022-12-22T13:28:54.764Z,7.65
2022-12-22T13:29:56.568Z,7.54
2022-12-22T13:31:01.427Z,7.36
2022-12-22T13:32:19.401Z,7.32
2022-12-22T13:33:25.576Z,7.24
2022-12-22T13:35:04.266Z,7.28
2022-12-22T13:36:01.277Z,7.31
2022-12-22T13:37:14.677Z,7.26
2022-12-22T13:38:34.901Z,7.21
2022-12-22T13:39:36.436Z,7.16
2022-12-22T13:40:43.439Z,7.12
2022-12-22T13:41:47.851Z,7.13
2022-12-22T13:42:53.078Z,7.22
2022-12-22T13:44:01.254Z,7.20
2022-12-22T13:45:03.730Z,7.21
2022-12-22T13:46:05.955Z,7.18
2022-12-22T13:47:14.766Z,7.17
2022-12-22T13:48:20.891Z,7.15
2022-12-22T13:49:58.696Z,7.17
2022-12-22T13:50:54.211Z,7.21
2022-12-22T13:52:00.285Z,7.23
2022-12-22T13:53:09.549Z,7.27
2022-12-22T13:54:20.580Z,7.31
2022-12-22T13:55:28.242Z,7.42
2022-12-22T13:56:39.608Z,7.49
2022-12-22T13:57:41.535Z,7.52
2022-12-22T13:58:47.887Z,7.60
2022-12-22T13:59:51.593Z,7.62
2022-12-22T14:01:02.044Z,7.59
2022-12-22T14:02:16.139Z,7.56
2022-12-22T14:03:41.705Z,7.57
2022-12-22T14:04:43.696Z,7.63
2022-12-22T14:05:45.356Z,7.62
2022-12-22T14:06:47.006Z,7.66
2022-12-22T14:08:26.699Z,7.74
2022-12-22T14:09:28.309Z,7.78
2022-12-22T14:10:39.018Z,7.84
2022-12-22T14:11:50.703Z,7.87
2022-12-22T14:12:53.011Z,7.91
2022-12-22T14:13:54.538Z,7.91
2022-12-22T14:14:58.428Z,7.96
2022-12-22T14:16:02.538Z,7.98
2022-12-22T14:17:05.235Z,8.00
2022-12-22T14:18:06.887Z,8.01
2022-12-22T14:19:11.218Z,8.03
2022-12-22T14:20:20.897Z,8.08
2022-12-22T14:21:22.487Z,8.10
2022-12-22T14:22:33.531Z,8.07
2022-12-22T14:23:40.245Z,8.05
2022-12-22T14:24:45.326Z,8.05
2022-12-22T14:25:48.594Z,8.07
2022-12-22T14:26:53.377Z,8.02
2022-12-22T14:27:56.603Z,8.02
2022-12-22T14:28:58.933Z,8.04
2022-12-22T14:30:03.167Z,8.05
2022-12-22T14:31:12.986Z,8.02
2022-12-22T14:32:37.260Z,8.03
2022-12-22T14:33:39.055Z,8.04
2022-12-22T14:34:41.360Z,8.06
2022-12-22T14:35:43.018Z,8.08
2022-12-22T14:36:53.945Z,8.08
2022-12-22T14:38:24.002Z,8.08
2022-12-22T14:39:30.797Z,8.08
2022-12-22T14:40:34.968Z,8.07
2022-12-22T14:41:51.372Z,8.07
2022-12-22T14:42:53.160Z,8.05
2022-12-22T14:43:54.733Z,8.06
2022-12-22T14:44:56.795Z,8.06
2022-12-22T14:46:08.988Z,8.08
2022-12-22T14:47:17.456Z,8.09
2022-12-22T14:48:27.892Z,8.07
2022-12-22T14:49:29.744Z,7.99
2022-12-22T14:50:31.506Z,7.96
2022-12-22T14:51:33.128Z,7.94
2022-12-22T14:52:45.122Z,7.95
2022-12-22T14:53:58.660Z,7.92
2022-12-22T14:55:00.981Z,7.92
2022-12-22T14:56:02.668Z,7.93
2022-12-22T14:57:20.319Z,7.89
2022-12-22T14:58:28.183Z,7.89
2022-12-22T14:59:30.041Z,7.87
2022-12-22T15:00:35.561Z,7.84
2022-12-22T15:01:37.586Z,7.84
2022-12-22T15:02:48.934Z,7.84
2022-12-22T15:04:08.175Z,7.82
2022-12-22T15:05:25.959Z,7.70
2022-12-22T15:06:27.425Z,7.67
2022-12-22T15:08:03.881Z,7.68
2022-12-22T15:08:53.369Z,7.68
2022-12-22T15:10:17.230Z,7.69
2022-12-22T15:11:21.762Z,7.79
2022-12-22T15:12:23.508Z,7.84
2022-12-22T15:13:25.216Z,7.85
2022-12-22T15:14:36.688Z,7.77
2022-12-22T15:15:40.253Z,7.68
2022-12-22T15:16:42.459Z,7.55
2022-12-22T15:17:48.012Z,7.39
2022-12-22T15:18:53.115Z,7.19
2022-12-22T15:19:57.967Z,7.15
2022-12-22T15:20:59.631Z,7.14
2022-12-22T15:22:01.512Z,7.11
2022-12-22T15:23:03.037Z,7.09
2022-12-22T15:24:12.480Z,7.03
2022-12-22T15:25:16.569Z,7.00
2022-12-22T15:26:18.113Z,7.00
2022-12-22T15:27:19.766Z,6.99
2022-12-22T15:28:21.466Z,6.94
2022-12-22T15:29:23.096Z,6.88
2022-12-22T15:30:30.654Z,6.87
2022-12-22T15:31:32.477Z,6.89
2022-12-22T15:32:37.864Z,6.90
2022-12-22T15:33:40.359Z,6.87
2022-12-22T15:34:42.442Z,6.83